ELY542 LGAV-LLBG
Flight info
| Callsign | ELY542 |
|---|---|
| Flight time | N/A |
| Altitude | 39000 |
| Route | KEA N132 TUXEM UT514 PEXAN UM601 MADEX UN132 KUPIS UN134 VANZA DCT PIKOG L609 ZUKKO |
| Aircraft | B738/M-SDE2E3FGHIJ1LORVWXY/LB1 |
Departure
| Time | 2026-05-07 14:50 |
|---|---|
| Airport | Athens Eleftherios Venizelos International Airport (LGAV) |
Arrival
| Time | N/A |
|---|---|
| Airport | Ben Gurion International Airport (LLBG) |
| Time | Latitude | Longitude | Altitude | Speed | Heading |
|---|---|---|---|---|---|
| 2026-05-07 14:18 | 37.93520 | 23.94750 | 287 ft | 0 kts | 310° |
| 2026-05-07 14:38 | 37.93515 | 23.94758 | 283 ft | 4 kts | 310° |
| 2026-05-07 14:38 | 37.93497 | 23.94785 | 283 ft | 4 kts | 310° |
| 2026-05-07 14:38 | 37.93480 | 23.94809 | 286 ft | 2 kts | 310° |
| 2026-05-07 14:38 | 37.93465 | 23.94828 | 287 ft | 4 kts | 333° |
| 2026-05-07 14:39 | 37.93442 | 23.94841 | 288 ft | 1 kts | 334° |
| 2026-05-07 14:39 | 37.93438 | 23.94843 | 283 ft | 0 kts | 334° |
| 2026-05-07 14:42 | 37.93452 | 23.94841 | 286 ft | 5 kts | 356° |
| 2026-05-07 14:43 | 37.93512 | 23.94889 | 284 ft | 14 kts | 33° |
| 2026-05-07 14:43 | 37.93607 | 23.94975 | 282 ft | 20 kts | 36° |
| 2026-05-07 14:43 | 37.93734 | 23.95097 | 285 ft | 25 kts | 37° |
| 2026-05-07 14:43 | 37.93866 | 23.95223 | 279 ft | 16 kts | 38° |
| 2026-05-07 14:44 | 37.93906 | 23.95336 | 279 ft | 16 kts | 104° |
| 2026-05-07 14:44 | 37.93947 | 23.95422 | 282 ft | 11 kts | 37° |
| 2026-05-07 14:44 | 37.94038 | 23.95507 | 280 ft | 22 kts | 35° |
| 2026-05-07 14:44 | 37.94182 | 23.95644 | 276 ft | 31 kts | 40° |
| 2026-05-07 14:45 | 37.94346 | 23.95804 | 274 ft | 19 kts | 35° |
| 2026-05-07 14:45 | 37.94352 | 23.95891 | 273 ft | 2 kts | 128° |
| 2026-05-07 14:45 | 37.94331 | 23.95975 | 274 ft | 16 kts | 108° |
| 2026-05-07 14:45 | 37.94290 | 23.96013 | 274 ft | 0 kts | 176° |
| 2026-05-07 14:49 | 37.94282 | 23.96013 | 274 ft | 4 kts | 180° |
| 2026-05-07 14:49 | 37.94229 | 23.96006 | 274 ft | 11 kts | 189° |
| 2026-05-07 14:49 | 37.94132 | 23.95987 | 275 ft | 17 kts | 187° |
| 2026-05-07 14:49 | 37.94082 | 23.95965 | 275 ft | 0 kts | 214° |
| 2026-05-07 14:50 | 37.94069 | 23.95954 | 275 ft | 18 kts | 214° |
| 2026-05-07 14:50 | 37.93746 | 23.95649 | 278 ft | 97 kts | 217° |
| 2026-05-07 14:50 | 37.93033 | 23.94966 | 350 ft | 154 kts | 218° |
| 2026-05-07 14:50 | 37.92159 | 23.94125 | 1154 ft | 156 kts | 214° |
| 2026-05-07 14:51 | 37.91237 | 23.93379 | 2048 ft | 159 kts | 208° |
| 2026-05-07 14:51 | 37.90160 | 23.92645 | 2463 ft | 195 kts | 207° |
| 2026-05-07 14:51 | 37.88915 | 23.91805 | 2952 ft | 208 kts | 208° |
| 2026-05-07 14:51 | 37.87614 | 23.90928 | 3616 ft | 216 kts | 208° |
| 2026-05-07 14:52 | 37.86273 | 23.90041 | 4365 ft | 219 kts | 204° |
| 2026-05-07 14:52 | 37.84758 | 23.89860 | 5182 ft | 227 kts | 163° |
| 2026-05-07 14:52 | 37.83451 | 23.90986 | 5970 ft | 234 kts | 131° |
| 2026-05-07 14:52 | 37.82441 | 23.92589 | 6617 ft | 239 kts | 128° |
| 2026-05-07 14:53 | 37.81437 | 23.94253 | 6931 ft | 238 kts | 128° |
| 2026-05-07 14:53 | 37.80413 | 23.95949 | 7190 ft | 246 kts | 129° |
| 2026-05-07 14:53 | 37.79349 | 23.97692 | 7913 ft | 251 kts | 129° |
| 2026-05-07 14:53 | 37.78283 | 23.99423 | 8822 ft | 250 kts | 129° |
| 2026-05-07 14:54 | 37.77194 | 24.01180 | 9581 ft | 256 kts | 129° |
| 2026-05-07 14:54 | 37.76093 | 24.02951 | 10402 ft | 257 kts | 129° |
| 2026-05-07 14:54 | 37.74964 | 24.04739 | 11027 ft | 267 kts | 132° |
| 2026-05-07 14:54 | 37.73663 | 24.06521 | 11268 ft | 293 kts | 135° |
| 2026-05-07 14:55 | 37.72175 | 24.08444 | 11475 ft | 320 kts | 136° |
| 2026-05-07 14:55 | 37.70549 | 24.10534 | 11728 ft | 343 kts | 135° |
| 2026-05-07 14:55 | 37.68846 | 24.12734 | 12272 ft | 355 kts | 135° |
| 2026-05-07 14:55 | 37.67108 | 24.14993 | 12985 ft | 362 kts | 135° |
| 2026-05-07 14:56 | 37.65361 | 24.17272 | 13753 ft | 367 kts | 135° |
| 2026-05-07 14:56 | 37.63574 | 24.19608 | 14498 ft | 372 kts | 135° |
| 2026-05-07 14:56 | 37.61781 | 24.21954 | 15311 ft | 374 kts | 136° |
| 2026-05-07 14:56 | 37.59968 | 24.24326 | 16145 ft | 376 kts | 136° |
| 2026-05-07 14:57 | 37.58140 | 24.26713 | 16941 ft | 380 kts | 136° |
| 2026-05-07 14:57 | 37.56291 | 24.29125 | 17717 ft | 384 kts | 137° |
| 2026-05-07 14:57 | 37.54413 | 24.31543 | 18485 ft | 388 kts | 138° |
| 2026-05-07 14:57 | 37.52481 | 24.33958 | 19134 ft | 392 kts | 138° |
| 2026-05-07 14:58 | 37.50519 | 24.36380 | 19765 ft | 397 kts | 138° |
| 2026-05-07 14:58 | 37.48534 | 24.38825 | 20396 ft | 402 kts | 138° |
| 2026-05-07 14:58 | 37.46520 | 24.41308 | 20997 ft | 407 kts | 138° |
| 2026-05-07 14:58 | 37.44489 | 24.43816 | 21603 ft | 412 kts | 137° |
| 2026-05-07 14:59 | 37.42455 | 24.46329 | 22217 ft | 416 kts | 137° |
| 2026-05-07 14:59 | 37.40383 | 24.48892 | 22813 ft | 420 kts | 137° |
| 2026-05-07 14:59 | 37.38286 | 24.51485 | 23394 ft | 425 kts | 136° |
| 2026-05-07 14:59 | 37.36168 | 24.54102 | 23914 ft | 429 kts | 136° |
| 2026-05-07 15:00 | 37.34026 | 24.56747 | 24379 ft | 434 kts | 136° |
| 2026-05-07 15:00 | 37.31863 | 24.59416 | 24843 ft | 438 kts | 137° |
| 2026-05-07 15:00 | 37.29673 | 24.62116 | 25286 ft | 443 kts | 137° |
| 2026-05-07 15:00 | 37.27466 | 24.64834 | 25740 ft | 447 kts | 137° |
| 2026-05-07 15:01 | 37.25260 | 24.67548 | 26186 ft | 451 kts | 137° |
| 2026-05-07 15:01 | 37.23006 | 24.70319 | 26630 ft | 454 kts | 137° |
| 2026-05-07 15:01 | 37.20754 | 24.73086 | 27053 ft | 458 kts | 137° |
| 2026-05-07 15:01 | 37.18459 | 24.75903 | 27470 ft | 463 kts | 137° |
| 2026-05-07 15:02 | 37.16147 | 24.78736 | 27882 ft | 467 kts | 137° |
| 2026-05-07 15:02 | 37.13815 | 24.81594 | 28285 ft | 470 kts | 137° |
| 2026-05-07 15:02 | 37.11459 | 24.84477 | 28689 ft | 474 kts | 137° |
| 2026-05-07 15:02 | 37.09115 | 24.87344 | 29071 ft | 478 kts | 137° |
| 2026-05-07 15:03 | 37.06749 | 24.90235 | 29451 ft | 481 kts | 137° |
| 2026-05-07 15:03 | 37.04344 | 24.93170 | 29830 ft | 484 kts | 138° |
| 2026-05-07 15:03 | 37.01948 | 24.96093 | 30183 ft | 488 kts | 138° |
| 2026-05-07 15:03 | 36.99475 | 24.99107 | 30476 ft | 492 kts | 138° |
| 2026-05-07 15:04 | 36.97037 | 25.02075 | 30743 ft | 496 kts | 138° |
| 2026-05-07 15:04 | 36.94527 | 25.05047 | 31004 ft | 498 kts | 142° |
| 2026-05-07 15:04 | 36.91722 | 25.07600 | 31271 ft | 498 kts | 152° |
| 2026-05-07 15:04 | 36.88672 | 25.09625 | 31559 ft | 495 kts | 161° |
| 2026-05-07 15:05 | 36.85443 | 25.11057 | 31835 ft | 493 kts | 168° |
| 2026-05-07 15:05 | 36.82152 | 25.12300 | 32100 ft | 495 kts | 169° |
| 2026-05-07 15:05 | 36.78851 | 25.13571 | 32310 ft | 500 kts | 168° |
| 2026-05-07 15:05 | 36.75531 | 25.14908 | 32574 ft | 503 kts | 166° |
| 2026-05-07 15:06 | 36.72343 | 25.16809 | 32888 ft | 515 kts | 148° |
| 2026-05-07 15:06 | 36.69714 | 25.19792 | 33256 ft | 521 kts | 130° |
| 2026-05-07 15:06 | 36.67723 | 25.23571 | 33591 ft | 523 kts | 115° |
| 2026-05-07 15:06 | 36.66570 | 25.27862 | 33828 ft | 520 kts | 97° |
| 2026-05-07 15:07 | 36.66048 | 25.32304 | 34134 ft | 519 kts | 94° |
| 2026-05-07 15:07 | 36.65223 | 25.36683 | 34653 ft | 517 kts | 107° |
| 2026-05-07 15:07 | 36.63771 | 25.40724 | 35141 ft | 516 kts | 119° |
| 2026-05-07 15:07 | 36.61712 | 25.44415 | 35236 ft | 521 kts | 133° |
| 2026-05-07 15:08 | 36.56481 | 25.50746 | 35572 ft | 525 kts | 139° |
| 2026-05-07 15:08 | 36.54715 | 25.52808 | 35758 ft | 525 kts | 139° |
| 2026-05-07 15:08 | 36.51188 | 25.56968 | 36100 ft | 527 kts | 138° |
| 2026-05-07 15:09 | 36.48538 | 25.60142 | 36312 ft | 529 kts | 138° |
| 2026-05-07 15:09 | 36.46785 | 25.62258 | 36388 ft | 531 kts | 137° |
| 2026-05-07 15:09 | 36.44126 | 25.65481 | 36534 ft | 534 kts | 137° |
| 2026-05-07 15:09 | 36.41489 | 25.68683 | 37080 ft | 528 kts | 137° |
| 2026-05-07 15:10 | 36.38861 | 25.71869 | 37309 ft | 530 kts | 137° |
| 2026-05-07 15:10 | 36.36213 | 25.75071 | 37391 ft | 535 kts | 137° |
| 2026-05-07 15:10 | 36.33542 | 25.78294 | 37632 ft | 535 kts | 137° |
| 2026-05-07 15:10 | 36.30862 | 25.81526 | 37855 ft | 536 kts | 137° |
| 2026-05-07 15:11 | 36.28207 | 25.84721 | 38012 ft | 539 kts | 137° |
| 2026-05-07 15:11 | 36.25579 | 25.88056 | 38162 ft | 542 kts | 130° |
| 2026-05-07 15:11 | 36.23294 | 25.91769 | 38389 ft | 542 kts | 122° |
| 2026-05-07 15:11 | 36.21452 | 25.95821 | 38599 ft | 539 kts | 112° |
| 2026-05-07 15:12 | 36.19878 | 26.00040 | 38938 ft | 535 kts | 111° |
| 2026-05-07 15:12 | 36.18349 | 26.04234 | 39154 ft | 535 kts | 111° |
| 2026-05-07 15:12 | 36.15255 | 26.12641 | 39144 ft | 539 kts | 111° |
| 2026-05-07 15:13 | 36.12091 | 26.21010 | 39124 ft | 534 kts | 112° |
| 2026-05-07 15:13 | 36.08922 | 26.29281 | 39142 ft | 531 kts | 112° |
| 2026-05-07 15:14 | 36.05786 | 26.37453 | 39135 ft | 530 kts | 112° |
| 2026-05-07 15:14 | 36.02632 | 26.45664 | 39142 ft | 529 kts | 112° |
| 2026-05-07 15:15 | 35.99474 | 26.53869 | 39141 ft | 528 kts | 112° |
| 2026-05-07 15:15 | 35.96323 | 26.62032 | 39154 ft | 528 kts | 112° |
| 2026-05-07 15:16 | 35.93150 | 26.70237 | 39140 ft | 528 kts | 112° |
| 2026-05-07 15:16 | 35.89971 | 26.78425 | 39139 ft | 528 kts | 112° |
| 2026-05-07 15:17 | 35.86786 | 26.86525 | 39140 ft | 527 kts | 112° |
| 2026-05-07 15:17 | 35.83599 | 26.94663 | 39148 ft | 525 kts | 112° |
| 2026-05-07 15:18 | 35.80473 | 27.02745 | 39133 ft | 524 kts | 112° |
| 2026-05-07 15:18 | 35.77307 | 27.10806 | 39142 ft | 521 kts | 113° |
| 2026-05-07 15:19 | 35.74158 | 27.18786 | 39146 ft | 519 kts | 113° |
| 2026-05-07 15:19 | 35.70998 | 27.26789 | 39141 ft | 517 kts | 113° |
| 2026-05-07 15:20 | 35.67866 | 27.34711 | 39135 ft | 515 kts | 113° |
| 2026-05-07 15:20 | 35.64741 | 27.42600 | 39141 ft | 514 kts | 113° |
| 2026-05-07 15:21 | 35.61607 | 27.50493 | 39159 ft | 513 kts | 113° |
| 2026-05-07 15:21 | 35.58472 | 27.58365 | 39140 ft | 512 kts | 113° |
| 2026-05-07 15:22 | 35.55336 | 27.66223 | 39141 ft | 511 kts | 113° |
| 2026-05-07 15:22 | 35.52200 | 27.74062 | 39122 ft | 511 kts | 113° |
| 2026-05-07 15:23 | 35.49068 | 27.81870 | 39144 ft | 511 kts | 113° |
| 2026-05-07 15:23 | 35.45933 | 27.89672 | 39142 ft | 512 kts | 113° |
| 2026-05-07 15:24 | 35.42789 | 27.97474 | 39146 ft | 514 kts | 113° |
| 2026-05-07 15:24 | 35.39612 | 28.05340 | 39147 ft | 515 kts | 113° |
| 2026-05-07 15:25 | 35.36416 | 28.13234 | 39145 ft | 516 kts | 113° |
| 2026-05-07 15:25 | 35.33215 | 28.21123 | 39134 ft | 517 kts | 113° |
| 2026-05-07 15:26 | 35.30024 | 28.28971 | 39131 ft | 516 kts | 113° |
| 2026-05-07 15:26 | 35.26884 | 28.36798 | 39132 ft | 514 kts | 109° |
| 2026-05-07 15:27 | 35.24461 | 28.44979 | 39138 ft | 509 kts | 104° |
| 2026-05-07 15:27 | 35.22254 | 28.53189 | 39129 ft | 507 kts | 104° |
| 2026-05-07 15:28 | 35.20007 | 28.61346 | 39129 ft | 505 kts | 105° |
| 2026-05-07 15:28 | 35.17711 | 28.69458 | 39143 ft | 503 kts | 105° |
| 2026-05-07 15:29 | 35.15412 | 28.77503 | 39130 ft | 501 kts | 105° |
| 2026-05-07 15:29 | 35.13112 | 28.85537 | 39131 ft | 499 kts | 105° |
| 2026-05-07 15:30 | 35.10835 | 28.93481 | 39132 ft | 497 kts | 105° |
| 2026-05-07 15:30 | 35.08544 | 29.01455 | 39144 ft | 496 kts | 105° |
| 2026-05-07 15:31 | 35.06252 | 29.09406 | 39135 ft | 495 kts | 105° |
| 2026-05-07 15:31 | 35.03971 | 29.17297 | 39131 ft | 494 kts | 105° |
| 2026-05-07 15:32 | 35.01696 | 29.25150 | 39146 ft | 494 kts | 106° |
| 2026-05-07 15:32 | 34.99406 | 29.33030 | 39139 ft | 493 kts | 107° |
| 2026-05-07 15:33 | 34.96829 | 29.40795 | 39137 ft | 494 kts | 110° |
| 2026-05-07 15:33 | 34.94066 | 29.48478 | 39136 ft | 494 kts | 111° |
| 2026-05-07 15:34 | 34.91324 | 29.56152 | 39141 ft | 493 kts | 110° |
| 2026-05-07 15:34 | 34.88614 | 29.63827 | 39137 ft | 493 kts | 110° |
| 2026-05-07 15:35 | 34.85910 | 29.71502 | 39140 ft | 493 kts | 110° |
| 2026-05-07 15:35 | 34.83200 | 29.79169 | 39139 ft | 493 kts | 110° |
| 2026-05-07 15:36 | 34.80502 | 29.86778 | 39147 ft | 493 kts | 110° |
| 2026-05-07 15:36 | 34.77782 | 29.94432 | 39132 ft | 493 kts | 110° |
| 2026-05-07 15:37 | 34.74916 | 30.02033 | 39126 ft | 495 kts | 117° |
| 2026-05-07 15:37 | 34.71317 | 30.09193 | 39130 ft | 496 kts | 121° |
| 2026-05-07 15:38 | 34.67631 | 30.16207 | 39143 ft | 495 kts | 120° |
| 2026-05-07 15:38 | 34.63959 | 30.23279 | 39114 ft | 494 kts | 120° |
| 2026-05-07 15:39 | 34.60325 | 30.30367 | 39127 ft | 493 kts | 120° |
| 2026-05-07 15:39 | 34.56715 | 30.37432 | 39132 ft | 492 kts | 120° |
| 2026-05-07 15:40 | 34.53107 | 30.44479 | 39140 ft | 491 kts | 119° |
| 2026-05-07 15:40 | 34.49493 | 30.51517 | 39128 ft | 490 kts | 119° |
| 2026-05-07 15:41 | 34.45888 | 30.58520 | 39129 ft | 488 kts | 120° |
| 2026-05-07 15:41 | 34.42318 | 30.65442 | 39130 ft | 487 kts | 120° |
| 2026-05-07 15:42 | 34.38731 | 30.72383 | 39129 ft | 486 kts | 120° |
| 2026-05-07 15:42 | 34.35142 | 30.79317 | 39131 ft | 485 kts | 120° |
| 2026-05-07 15:43 | 34.31557 | 30.86228 | 39131 ft | 484 kts | 120° |
| 2026-05-07 15:43 | 34.27965 | 30.93139 | 39132 ft | 485 kts | 120° |
| 2026-05-07 15:44 | 34.24372 | 31.00039 | 39138 ft | 485 kts | 120° |
| 2026-05-07 15:44 | 34.20800 | 31.06885 | 39126 ft | 484 kts | 120° |
| 2026-05-07 15:45 | 34.17200 | 31.13772 | 39131 ft | 484 kts | 120° |
| 2026-05-07 15:45 | 34.13615 | 31.20617 | 39128 ft | 483 kts | 120° |
| 2026-05-07 15:46 | 34.08224 | 31.30886 | 39127 ft | 482 kts | 120° |
| 2026-05-07 15:47 | 34.04630 | 31.37716 | 39123 ft | 482 kts | 120° |
| 2026-05-07 15:47 | 34.01047 | 31.44510 | 39126 ft | 481 kts | 120° |
| 2026-05-07 15:48 | 33.97455 | 31.51311 | 39128 ft | 480 kts | 121° |
| 2026-05-07 15:48 | 33.93862 | 31.58100 | 39125 ft | 480 kts | 121° |
| 2026-05-07 15:49 | 33.90267 | 31.64879 | 39121 ft | 480 kts | 121° |
| 2026-05-07 15:49 | 33.86670 | 31.71651 | 39122 ft | 479 kts | 121° |
| 2026-05-07 15:50 | 33.83097 | 31.78365 | 39117 ft | 479 kts | 121° |
| 2026-05-07 15:50 | 33.79497 | 31.85115 | 39124 ft | 479 kts | 121° |
| 2026-05-07 15:51 | 33.75898 | 31.91853 | 39113 ft | 479 kts | 121° |
| 2026-05-07 15:51 | 33.72306 | 31.98563 | 39118 ft | 479 kts | 121° |
| 2026-05-07 15:52 | 33.68702 | 32.05286 | 39104 ft | 478 kts | 121° |
| 2026-05-07 15:52 | 33.65095 | 32.12001 | 39124 ft | 478 kts | 122° |
| 2026-05-07 15:53 | 33.61509 | 32.18663 | 39113 ft | 478 kts | 122° |
| 2026-05-07 15:53 | 33.57899 | 32.25359 | 39111 ft | 477 kts | 122° |
| 2026-05-07 15:54 | 33.54298 | 32.32025 | 39104 ft | 475 kts | 122° |
| 2026-05-07 15:54 | 33.50712 | 32.38653 | 39113 ft | 473 kts | 122° |
| 2026-05-07 15:55 | 33.47148 | 32.45228 | 39099 ft | 469 kts | 122° |
| 2026-05-07 15:55 | 33.43656 | 32.51656 | 38296 ft | 456 kts | 122° |
| 2026-05-07 15:55 | 33.41908 | 32.54870 | 37059 ft | 463 kts | 122° |
| 2026-05-07 15:56 | 33.40135 | 32.58131 | 35805 ft | 472 kts | 121° |
| 2026-05-07 15:56 | 33.38329 | 32.61448 | 34784 ft | 476 kts | 121° |
| 2026-05-07 15:56 | 33.36538 | 32.64734 | 33616 ft | 479 kts | 121° |
| 2026-05-07 15:56 | 33.34698 | 32.68107 | 32207 ft | 486 kts | 122° |
| 2026-05-07 15:57 | 33.33470 | 32.70357 | 31391 ft | 488 kts | 122° |
| 2026-05-07 15:57 | 33.31631 | 32.73718 | 31086 ft | 475 kts | 122° |
| 2026-05-07 15:57 | 33.29842 | 32.76986 | 30623 ft | 464 kts | 122° |
| 2026-05-07 15:57 | 33.28094 | 32.80176 | 30217 ft | 452 kts | 122° |
| 2026-05-07 15:58 | 33.26395 | 32.83275 | 29762 ft | 440 kts | 122° |
| 2026-05-07 15:58 | 33.24737 | 32.86296 | 29325 ft | 429 kts | 122° |
| 2026-05-07 15:58 | 33.23121 | 32.89241 | 28927 ft | 419 kts | 123° |
| 2026-05-07 15:58 | 33.21531 | 32.92137 | 28528 ft | 415 kts | 123° |
| 2026-05-07 15:59 | 33.19951 | 32.95010 | 28130 ft | 411 kts | 123° |
| 2026-05-07 15:59 | 33.18416 | 32.97801 | 27752 ft | 408 kts | 123° |
| 2026-05-07 15:59 | 33.16864 | 33.00620 | 27361 ft | 404 kts | 123° |
| 2026-05-07 15:59 | 33.15323 | 33.03417 | 26985 ft | 401 kts | 123° |
| 2026-05-07 16:00 | 33.13802 | 33.06176 | 26608 ft | 399 kts | 123° |
| 2026-05-07 16:00 | 33.12276 | 33.08941 | 26239 ft | 396 kts | 123° |
| 2026-05-07 16:00 | 33.10762 | 33.11683 | 25857 ft | 394 kts | 123° |
| 2026-05-07 16:00 | 33.09256 | 33.14408 | 25485 ft | 392 kts | 123° |
| 2026-05-07 16:01 | 33.07780 | 33.17076 | 25120 ft | 390 kts | 123° |
| 2026-05-07 16:01 | 33.06289 | 33.19770 | 24734 ft | 388 kts | 123° |
| 2026-05-07 16:01 | 33.04804 | 33.22452 | 24360 ft | 387 kts | 123° |
| 2026-05-07 16:01 | 33.03324 | 33.25122 | 23979 ft | 385 kts | 123° |
| 2026-05-07 16:02 | 33.01845 | 33.27789 | 23584 ft | 384 kts | 123° |
| 2026-05-07 16:02 | 33.00368 | 33.30449 | 23163 ft | 382 kts | 123° |
| 2026-05-07 16:02 | 32.98936 | 33.33029 | 22781 ft | 380 kts | 123° |
| 2026-05-07 16:02 | 32.97476 | 33.35655 | 22405 ft | 377 kts | 123° |
| 2026-05-07 16:03 | 32.96031 | 33.38251 | 22027 ft | 374 kts | 123° |
| 2026-05-07 16:03 | 32.94603 | 33.40817 | 21671 ft | 372 kts | 123° |
| 2026-05-07 16:03 | 32.93173 | 33.43386 | 21316 ft | 370 kts | 123° |
| 2026-05-07 16:03 | 32.91774 | 33.45897 | 20949 ft | 367 kts | 123° |
| 2026-05-07 16:04 | 32.90364 | 33.48424 | 20592 ft | 365 kts | 123° |
| 2026-05-07 16:04 | 32.88966 | 33.50929 | 20239 ft | 363 kts | 123° |
| 2026-05-07 16:04 | 32.87573 | 33.53425 | 19888 ft | 362 kts | 123° |
| 2026-05-07 16:04 | 32.86183 | 33.55913 | 19529 ft | 360 kts | 123° |
| 2026-05-07 16:05 | 32.84798 | 33.58391 | 19165 ft | 359 kts | 122° |
| 2026-05-07 16:05 | 32.83415 | 33.60862 | 18804 ft | 358 kts | 122° |
| 2026-05-07 16:05 | 32.81963 | 33.63271 | 18452 ft | 358 kts | 130° |
| 2026-05-07 16:05 | 32.80288 | 33.65440 | 18084 ft | 355 kts | 134° |
| 2026-05-07 16:06 | 32.78559 | 33.67537 | 17692 ft | 354 kts | 135° |
| 2026-05-07 16:06 | 32.76830 | 33.69612 | 17321 ft | 352 kts | 135° |
| 2026-05-07 16:06 | 32.75136 | 33.71655 | 16964 ft | 350 kts | 135° |
| 2026-05-07 16:06 | 32.73439 | 33.73718 | 16610 ft | 347 kts | 134° |
| 2026-05-07 16:07 | 32.71762 | 33.75770 | 16272 ft | 344 kts | 134° |
| 2026-05-07 16:07 | 32.70098 | 33.77813 | 15935 ft | 342 kts | 134° |
| 2026-05-07 16:07 | 32.68450 | 33.79840 | 15598 ft | 339 kts | 134° |
| 2026-05-07 16:07 | 32.66819 | 33.81847 | 15264 ft | 337 kts | 135° |
| 2026-05-07 16:08 | 32.65215 | 33.83821 | 14932 ft | 335 kts | 135° |
| 2026-05-07 16:08 | 32.63604 | 33.85803 | 14604 ft | 332 kts | 135° |
| 2026-05-07 16:08 | 32.62001 | 33.87775 | 14251 ft | 331 kts | 135° |
| 2026-05-07 16:08 | 32.60397 | 33.89746 | 13878 ft | 330 kts | 135° |
| 2026-05-07 16:09 | 32.58983 | 33.91867 | 13533 ft | 329 kts | 120° |
| 2026-05-07 16:09 | 32.57945 | 33.94276 | 13217 ft | 325 kts | 116° |
| 2026-05-07 16:09 | 32.56991 | 33.96688 | 12974 ft | 320 kts | 115° |
| 2026-05-07 16:09 | 32.56076 | 33.99050 | 12761 ft | 319 kts | 115° |
| 2026-05-07 16:10 | 32.55146 | 34.01467 | 12527 ft | 324 kts | 115° |
| 2026-05-07 16:10 | 32.54209 | 34.03908 | 12325 ft | 328 kts | 115° |
| 2026-05-07 16:10 | 32.53264 | 34.06368 | 12130 ft | 327 kts | 115° |
| 2026-05-07 16:10 | 32.52329 | 34.08804 | 11954 ft | 325 kts | 115° |
| 2026-05-07 16:11 | 32.51394 | 34.11243 | 11795 ft | 323 kts | 115° |
| 2026-05-07 16:11 | 32.50475 | 34.13644 | 11679 ft | 320 kts | 115° |
| 2026-05-07 16:11 | 32.49557 | 34.16042 | 11613 ft | 319 kts | 115° |
| 2026-05-07 16:11 | 32.48632 | 34.18452 | 11566 ft | 321 kts | 115° |
| 2026-05-07 16:12 | 32.47707 | 34.20865 | 11342 ft | 321 kts | 115° |
| 2026-05-07 16:12 | 32.46803 | 34.23232 | 11013 ft | 320 kts | 115° |
| 2026-05-07 16:12 | 32.45893 | 34.25626 | 10618 ft | 320 kts | 115° |
| 2026-05-07 16:12 | 32.44987 | 34.28004 | 10340 ft | 315 kts | 115° |
| 2026-05-07 16:13 | 32.44094 | 34.30345 | 10168 ft | 308 kts | 115° |
| 2026-05-07 16:13 | 32.43226 | 34.32634 | 10055 ft | 302 kts | 115° |
| 2026-05-07 16:13 | 32.42378 | 34.34873 | 10010 ft | 295 kts | 115° |
| 2026-05-07 16:13 | 32.41542 | 34.37077 | 9962 ft | 291 kts | 115° |
| 2026-05-07 16:14 | 32.40710 | 34.39264 | 9665 ft | 291 kts | 115° |
| 2026-05-07 16:14 | 32.39868 | 34.41462 | 9240 ft | 294 kts | 115° |
| 2026-05-07 16:14 | 32.39012 | 34.43675 | 8863 ft | 295 kts | 115° |
| 2026-05-07 16:14 | 32.38169 | 34.45836 | 8629 ft | 291 kts | 115° |
| 2026-05-07 16:15 | 32.37325 | 34.47983 | 8497 ft | 283 kts | 115° |
| 2026-05-07 16:15 | 32.36508 | 34.50078 | 8418 ft | 278 kts | 115° |
| 2026-05-07 16:15 | 32.35711 | 34.52163 | 8367 ft | 279 kts | 114° |
| 2026-05-07 16:15 | 32.34918 | 34.54251 | 8366 ft | 286 kts | 115° |
| 2026-05-07 16:16 | 32.34090 | 34.56401 | 8318 ft | 287 kts | 115° |
| 2026-05-07 16:16 | 32.33259 | 34.58541 | 8214 ft | 282 kts | 115° |